sensor_id;sensor_type;location;lat;lon;timestamp;P1;durP1;ratioP1;P2;durP2;ratioP2
61570;SDS011;47463;49.884;10.010;2024-03-08T00:00:00;32;;;15.1;;
61570;SDS011;47463;49.884;10.010;2024-03-08T00:05:00;28.9;;;14.6;;
61570;SDS011;47463;49.884;10.010;2024-03-08T00:10:00;29.9;;;15.1;;
61570;SDS011;47463;49.884;10.010;2024-03-08T00:15:00;33.2;;;15.3;;
61570;SDS011;47463;49.884;10.010;2024-03-08T00:20:00;31.5;;;15.3;;
61570;SDS011;47463;49.884;10.010;2024-03-08T00:25:00;31.5;;;15.3;;
61570;SDS011;47463;49.884;10.010;2024-03-08T00:30:00;25.8;;;14.2;;
61570;SDS011;47463;49.884;10.010;2024-03-08T00:35:00;32.7;;;15.9;;
61570;SDS011;47463;49.884;10.010;2024-03-08T00:40:00;32;;;15.6;;
61570;SDS011;47463;49.884;10.010;2024-03-08T00:45:00;34.2;;;16.1;;
61570;SDS011;47463;49.884;10.010;2024-03-08T00:50:00;31.2;;;15.6;;
61570;SDS011;47463;49.884;10.010;2024-03-08T00:55:00;31.2;;;15.6;;
61570;SDS011;47463;49.884;10.010;2024-03-08T01:00:00;31.9;;;15.5;;
61570;SDS011;47463;49.884;10.010;2024-03-08T01:05:00;31.6;;;15.5;;
61570;SDS011;47463;49.884;10.010;2024-03-08T01:10:00;34.5;;;15.6;;
61570;SDS011;47463;49.884;10.010;2024-03-08T01:15:00;30.8;;;15;;
61570;SDS011;47463;49.884;10.010;2024-03-08T01:20:00;29.7;;;15.1;;
61570;SDS011;47463;49.884;10.010;2024-03-08T01:25:00;29.7;;;15.1;;
61570;SDS011;47463;49.884;10.010;2024-03-08T01:30:00;33.3;;;15;;
61570;SDS011;47463;49.884;10.010;2024-03-08T01:35:00;33.6;;;15.7;;
61570;SDS011;47463;49.884;10.010;2024-03-08T01:40:00;32;;;15.6;;
61570;SDS011;47463;49.884;10.010;2024-03-08T01:45:00;32.6;;;15;;
61570;SDS011;47463;49.884;10.010;2024-03-08T01:50:00;30.3;;;14.8;;
61570;SDS011;47463;49.884;10.010;2024-03-08T01:55:00;30.3;;;14.8;;
61570;SDS011;47463;49.884;10.010;2024-03-08T02:00:00;35.1;;;15.4;;
61570;SDS011;47463;49.884;10.010;2024-03-08T02:05:00;31.8;;;15.5;;
61570;SDS011;47463;49.884;10.010;2024-03-08T02:10:00;36.3;;;16.7;;
61570;SDS011;47463;49.884;10.010;2024-03-08T02:15:00;36.9;;;16.8;;
61570;SDS011;47463;49.884;10.010;2024-03-08T02:20:00;35.9;;;15.7;;
61570;SDS011;47463;49.884;10.010;2024-03-08T02:25:00;35.9;;;15.7;;
61570;SDS011;47463;49.884;10.010;2024-03-08T02:30:00;36.3;;;17.1;;
61570;SDS011;47463;49.884;10.010;2024-03-08T02:35:00;35.3;;;17;;
61570;SDS011;47463;49.884;10.010;2024-03-08T02:40:00;32.6;;;15.4;;
61570;SDS011;47463;49.884;10.010;2024-03-08T02:45:00;34.7;;;16.4;;
61570;SDS011;47463;49.884;10.010;2024-03-08T02:50:00;38.3;;;16.8;;
61570;SDS011;47463;49.884;10.010;2024-03-08T02:55:00;38.3;;;16.8;;
61570;SDS011;47463;49.884;10.010;2024-03-08T03:00:00;35;;;16.6;;
61570;SDS011;47463;49.884;10.010;2024-03-08T03:05:00;35;;;16.1;;
61570;SDS011;47463;49.884;10.010;2024-03-08T03:10:00;32.2;;;15.8;;
61570;SDS011;47463;49.884;10.010;2024-03-08T03:15:00;35.7;;;16.2;;
61570;SDS011;47463;49.884;10.010;2024-03-08T03:20:00;31.9;;;15.6;;
61570;SDS011;47463;49.884;10.010;2024-03-08T03:25:00;31.9;;;15.6;;
61570;SDS011;47463;49.884;10.010;2024-03-08T03:30:00;37.1;;;16.1;;
61570;SDS011;47463;49.884;10.010;2024-03-08T03:35:00;37.9;;;17.2;;
61570;SDS011;47463;49.884;10.010;2024-03-08T03:40:00;34.9;;;16.8;;
61570;SDS011;47463;49.884;10.010;2024-03-08T03:45:00;39.4;;;17.6;;
61570;SDS011;47463;49.884;10.010;2024-03-08T03:50:00;33.4;;;16.3;;
61570;SDS011;47463;49.884;10.010;2024-03-08T03:55:00;33.4;;;16.3;;
61570;SDS011;47463;49.884;10.010;2024-03-08T04:00:00;35.4;;;16.9;;
61570;SDS011;47463;49.884;10.010;2024-03-08T04:05:00;37.9;;;17.9;;
61570;SDS011;47463;49.884;10.010;2024-03-08T04:10:00;36.7;;;17.4;;
61570;SDS011;47463;49.884;10.010;2024-03-08T04:15:00;38.9;;;17.4;;
61570;SDS011;47463;49.884;10.010;2024-03-08T04:20:00;35.8;;;16.8;;
61570;SDS011;47463;49.884;10.010;2024-03-08T04:25:00;35.8;;;16.8;;
61570;SDS011;47463;49.884;10.010;2024-03-08T04:30:00;38.8;;;18.1;;
61570;SDS011;47463;49.884;10.010;2024-03-08T04:35:00;37.8;;;17.5;;
61570;SDS011;47463;49.884;10.010;2024-03-08T04:40:00;38;;;17.6;;
61570;SDS011;47463;49.884;10.010;2024-03-08T04:45:00;39.6;;;18.4;;
61570;SDS011;47463;49.884;10.010;2024-03-08T04:50:00;39.2;;;19.1;;
61570;SDS011;47463;49.884;10.010;2024-03-08T04:55:00;39.2;;;19.1;;
61570;SDS011;47463;49.884;10.010;2024-03-08T05:00:00;39.6;;;18.5;;
61570;SDS011;47463;49.884;10.010;2024-03-08T05:05:00;38.6;;;17.6;;
61570;SDS011;47463;49.884;10.010;2024-03-08T05:10:00;37.6;;;18;;
61570;SDS011;47463;49.884;10.010;2024-03-08T05:15:00;38.4;;;16.7;;
61570;SDS011;47463;49.884;10.010;2024-03-08T05:20:00;41.1;;;18.7;;
61570;SDS011;47463;49.884;10.010;2024-03-08T05:25:00;41.1;;;18.7;;
61570;SDS011;47463;49.884;10.010;2024-03-08T05:30:00;41.1;;;18.5;;
61570;SDS011;47463;49.884;10.010;2024-03-08T05:35:00;41.4;;;18.5;;
61570;SDS011;47463;49.884;10.010;2024-03-08T05:40:00;38.8;;;19.4;;
61570;SDS011;47463;49.884;10.010;2024-03-08T05:45:00;42.4;;;18.7;;
61570;SDS011;47463;49.884;10.010;2024-03-08T05:50:00;45.3;;;19.8;;
61570;SDS011;47463;49.884;10.010;2024-03-08T05:55:00;45.3;;;19.8;;
61570;SDS011;47463;49.884;10.010;2024-03-08T06:00:00;37.8;;;18.1;;
61570;SDS011;47463;49.884;10.010;2024-03-08T06:05:00;36;;;17.4;;
61570;SDS011;47463;49.884;10.010;2024-03-08T06:10:00;40.9;;;18.6;;
61570;SDS011;47463;49.884;10.010;2024-03-08T06:15:00;38.5;;;18.4;;
61570;SDS011;47463;49.884;10.010;2024-03-08T06:20:00;38.5;;;17.7;;
61570;SDS011;47463;49.884;10.010;2024-03-08T06:25:00;38.5;;;17.7;;
61570;SDS011;47463;49.884;10.010;2024-03-08T06:30:00;37;;;17.1;;
61570;SDS011;47463;49.884;10.010;2024-03-08T06:35:00;33.7;;;16.6;;
61570;SDS011;47463;49.884;10.010;2024-03-08T06:40:00;30.2;;;16.2;;
61570;SDS011;47463;49.884;10.010;2024-03-08T06:45:00;29.9;;;16.6;;
61570;SDS011;47463;49.884;10.010;2024-03-08T06:50:00;32.2;;;17.4;;
61570;SDS011;47463;49.884;10.010;2024-03-08T06:55:00;32.2;;;17.4;;
61570;SDS011;47463;49.884;10.010;2024-03-08T07:00:00;33;;;17.9;;
61570;SDS011;47463;49.884;10.010;2024-03-08T07:05:00;33.3;;;17.3;;
61570;SDS011;47463;49.884;10.010;2024-03-08T07:10:00;34.6;;;18.8;;
61570;SDS011;47463;49.884;10.010;2024-03-08T07:15:00;35.3;;;19.4;;
61570;SDS011;47463;49.884;10.010;2024-03-08T07:20:00;33.8;;;19.4;;
61570;SDS011;47463;49.884;10.010;2024-03-08T07:25:00;33.8;;;19.4;;
61570;SDS011;47463;49.884;10.010;2024-03-08T07:30:00;32.5;;;18.8;;
61570;SDS011;47463;49.884;10.010;2024-03-08T07:35:00;32.1;;;19.8;;
61570;SDS011;47463;49.884;10.010;2024-03-08T07:40:00;31.6;;;20.2;;
61570;SDS011;47463;49.884;10.010;2024-03-08T07:45:00;36.2;;;21.4;;
61570;SDS011;47463;49.884;10.010;2024-03-08T07:50:00;34.7;;;21.2;;
61570;SDS011;47463;49.884;10.010;2024-03-08T07:55:00;34.7;;;21.2;;
61570;SDS011;47463;49.884;10.010;2024-03-08T08:00:00;36.2;;;22.2;;
61570;SDS011;47463;49.884;10.010;2024-03-08T08:05:00;37.3;;;21.6;;
61570;SDS011;47463;49.884;10.010;2024-03-08T08:10:00;35.5;;;22.6;;
61570;SDS011;47463;49.884;10.010;2024-03-08T08:15:00;36.9;;;22.9;;
61570;SDS011;47463;49.884;10.010;2024-03-08T08:20:00;35.2;;;22.7;;
61570;SDS011;47463;49.884;10.010;2024-03-08T08:25:00;35.2;;;22.7;;
61570;SDS011;47463;49.884;10.010;2024-03-08T08:30:00;35.9;;;22.7;;
61570;SDS011;47463;49.884;10.010;2024-03-08T08:35:00;35.7;;;24;;
61570;SDS011;47463;49.884;10.010;2024-03-08T08:40:00;38.1;;;22.8;;
61570;SDS011;47463;49.884;10.010;2024-03-08T08:45:00;38.9;;;23.8;;
61570;SDS011;47463;49.884;10.010;2024-03-08T08:50:00;38.8;;;23.8;;
61570;SDS011;47463;49.884;10.010;2024-03-08T08:55:00;38.8;;;23.8;;
61570;SDS011;47463;49.884;10.010;2024-03-08T09:00:00;39.7;;;23.9;;
61570;SDS011;47463;49.884;10.010;2024-03-08T09:05:00;37.7;;;24.1;;
61570;SDS011;47463;49.884;10.010;2024-03-08T09:10:00;38.1;;;23.4;;
61570;SDS011;47463;49.884;10.010;2024-03-08T09:15:00;36.6;;;23.3;;
61570;SDS011;47463;49.884;10.010;2024-03-08T09:20:00;38.9;;;23.6;;
61570;SDS011;47463;49.884;10.010;2024-03-08T09:25:00;38.9;;;23.6;;
61570;SDS011;47463;49.884;10.010;2024-03-08T09:30:00;35.1;;;21.7;;
61570;SDS011;47463;49.884;10.010;2024-03-08T09:35:00;38.9;;;22.7;;
61570;SDS011;47463;49.884;10.010;2024-03-08T09:40:00;41.3;;;22.8;;
61570;SDS011;47463;49.884;10.010;2024-03-08T09:45:00;41.2;;;21.3;;
61570;SDS011;47463;49.884;10.010;2024-03-08T09:50:00;40.5;;;20.2;;
61570;SDS011;47463;49.884;10.010;2024-03-08T09:55:00;40.5;;;20.2;;
61570;SDS011;47463;49.884;10.010;2024-03-08T10:00:00;38.8;;;19.3;;
61570;SDS011;47463;49.884;10.010;2024-03-08T10:05:00;40.3;;;18.9;;
61570;SDS011;47463;49.884;10.010;2024-03-08T10:10:00;38.1;;;18.3;;
61570;SDS011;47463;49.884;10.010;2024-03-08T10:15:00;38.6;;;18;;
61570;SDS011;47463;49.884;10.010;2024-03-08T10:20:00;39.8;;;18.7;;
61570;SDS011;47463;49.884;10.010;2024-03-08T10:25:00;39.8;;;18.7;;
61570;SDS011;47463;49.884;10.010;2024-03-08T10:30:00;43.6;;;19.2;;
61570;SDS011;47463;49.884;10.010;2024-03-08T10:35:00;38.1;;;18.9;;
61570;SDS011;47463;49.884;10.010;2024-03-08T10:40:02;40.3;;;19.2;;
61570;SDS011;47463;49.884;10.010;2024-03-08T10:45:01;36.9;;;16.7;;
61570;SDS011;47463;49.884;10.010;2024-03-08T10:50:03;43.6;;;17.1;;
61570;SDS011;47463;49.884;10.010;2024-03-08T10:55:00;43.6;;;17.1;;
61570;SDS011;47463;49.884;10.010;2024-03-08T11:00:00;38.4;;;17.4;;
61570;SDS011;47463;49.884;10.010;2024-03-08T11:05:00;38.6;;;17.4;;
61570;SDS011;47463;49.884;10.010;2024-03-08T11:10:01;41.4;;;18.3;;
61570;SDS011;47463;49.884;10.010;2024-03-08T11:15:00;32.3;;;14.4;;
61570;SDS011;47463;49.884;10.010;2024-03-08T11:20:00;38.8;;;18.6;;
61570;SDS011;47463;49.884;10.010;2024-03-08T11:25:00;38.8;;;18.6;;
61570;SDS011;47463;49.884;10.010;2024-03-08T11:30:00;38;;;17.6;;
61570;SDS011;47463;49.884;10.010;2024-03-08T11:35:00;41.4;;;19;;
61570;SDS011;47463;49.884;10.010;2024-03-08T11:40:00;42.4;;;18.7;;
61570;SDS011;47463;49.884;10.010;2024-03-08T11:45:00;39.7;;;18.2;;
61570;SDS011;47463;49.884;10.010;2024-03-08T11:50:00;40.5;;;18;;
61570;SDS011;47463;49.884;10.010;2024-03-08T11:55:00;40.5;;;18;;
61570;SDS011;47463;49.884;10.010;2024-03-08T12:00:00;40.6;;;18.4;;
61570;SDS011;47463;49.884;10.010;2024-03-08T12:05:00;37.9;;;17.2;;
61570;SDS011;47463;49.884;10.010;2024-03-08T12:10:20;38.5;;;17.5;;
61570;SDS011;47463;49.884;10.010;2024-03-08T12:15:00;42.3;;;18.6;;
61570;SDS011;47463;49.884;10.010;2024-03-08T12:20:10;35.4;;;16;;
61570;SDS011;47463;49.884;10.010;2024-03-08T12:25:03;35.4;;;16;;
61570;SDS011;47463;49.884;10.010;2024-03-08T12:30:00;36.4;;;16.3;;
61570;SDS011;47463;49.884;10.010;2024-03-08T12:35:00;37;;;15.3;;
61570;SDS011;47463;49.884;10.010;2024-03-08T12:40:00;35.2;;;15.4;;
61570;SDS011;47463;49.884;10.010;2024-03-08T12:45:00;35.4;;;14.7;;
61570;SDS011;47463;49.884;10.010;2024-03-08T12:50:00;33.1;;;15.5;;
61570;SDS011;47463;49.884;10.010;2024-03-08T12:55:00;33.1;;;15.5;;
61570;SDS011;47463;49.884;10.010;2024-03-08T13:00:00;35.1;;;15;;
61570;SDS011;47463;49.884;10.010;2024-03-08T13:05:00;31.4;;;15.2;;
61570;SDS011;47463;49.884;10.010;2024-03-08T13:10:00;33.7;;;15.3;;
61570;SDS011;47463;49.884;10.010;2024-03-08T13:15:00;33.6;;;14.7;;
61570;SDS011;47463;49.884;10.010;2024-03-08T13:20:00;29.9;;;13.5;;
61570;SDS011;47463;49.884;10.010;2024-03-08T13:25:00;29.9;;;13.5;;
61570;SDS011;47463;49.884;10.010;2024-03-08T13:30:00;33.4;;;14.7;;
61570;SDS011;47463;49.884;10.010;2024-03-08T13:35:00;34.4;;;14.9;;
61570;SDS011;47463;49.884;10.010;2024-03-08T13:40:00;28.9;;;13;;
61570;SDS011;47463;49.884;10.010;2024-03-08T13:45:00;32.1;;;13.2;;
61570;SDS011;47463;49.884;10.010;2024-03-08T13:50:00;33.2;;;14.6;;
61570;SDS011;47463;49.884;10.010;2024-03-08T13:55:00;33.2;;;14.6;;
61570;SDS011;47463;49.884;10.010;2024-03-08T14:00:00;28.5;;;12.9;;
61570;SDS011;47463;49.884;10.010;2024-03-08T14:05:00;29.2;;;13.4;;
61570;SDS011;47463;49.884;10.010;2024-03-08T14:10:00;34.7;;;14.7;;
61570;SDS011;47463;49.884;10.010;2024-03-08T14:15:00;31.2;;;13.8;;
61570;SDS011;47463;49.884;10.010;2024-03-08T14:20:00;23.6;;;11;;
61570;SDS011;47463;49.884;10.010;2024-03-08T14:25:00;23.6;;;11;;
61570;SDS011;47463;49.884;10.010;2024-03-08T14:30:00;30.5;;;13.8;;
61570;SDS011;47463;49.884;10.010;2024-03-08T14:35:00;36.9;;;15.4;;
61570;SDS011;47463;49.884;10.010;2024-03-08T14:40:00;26.2;;;12.4;;
61570;SDS011;47463;49.884;10.010;2024-03-08T14:45:00;25.5;;;11.8;;
61570;SDS011;47463;49.884;10.010;2024-03-08T14:50:00;26.8;;;11.1;;
61570;SDS011;47463;49.884;10.010;2024-03-08T14:55:00;26.8;;;11.1;;
61570;SDS011;47463;49.884;10.010;2024-03-08T15:00:00;39.4;;;16.3;;
61570;SDS011;47463;49.884;10.010;2024-03-08T15:05:00;39.4;;;17;;
61570;SDS011;47463;49.884;10.010;2024-03-08T15:10:00;43.9;;;18.1;;
61570;SDS011;47463;49.884;10.010;2024-03-08T15:15:00;41.7;;;17.7;;
61570;SDS011;47463;49.884;10.010;2024-03-08T15:20:00;41.2;;;17.5;;
61570;SDS011;47463;49.884;10.010;2024-03-08T15:25:00;41.2;;;17.5;;
61570;SDS011;47463;49.884;10.010;2024-03-08T15:30:00;42.6;;;18.3;;
61570;SDS011;47463;49.884;10.010;2024-03-08T15:35:00;40.3;;;17.5;;
61570;SDS011;47463;49.884;10.010;2024-03-08T15:40:00;34.3;;;15.3;;
61570;SDS011;47463;49.884;10.010;2024-03-08T15:45:00;38;;;15.9;;
61570;SDS011;47463;49.884;10.010;2024-03-08T15:50:00;33.1;;;14.9;;
61570;SDS011;47463;49.884;10.010;2024-03-08T15:55:00;33.1;;;14.9;;
61570;SDS011;47463;49.884;10.010;2024-03-08T16:00:00;35.2;;;15.8;;
61570;SDS011;47463;49.884;10.010;2024-03-08T16:05:00;34.1;;;15.1;;
61570;SDS011;47463;49.884;10.010;2024-03-08T16:10:00;33.2;;;14.8;;
61570;SDS011;47463;49.884;10.010;2024-03-08T16:15:00;28.9;;;13.5;;
61570;SDS011;47463;49.884;10.010;2024-03-08T16:20:00;27.8;;;13;;
61570;SDS011;47463;49.884;10.010;2024-03-08T16:25:00;27.8;;;13;;
61570;SDS011;47463;49.884;10.010;2024-03-08T16:30:00;28;;;12.5;;
61570;SDS011;47463;49.884;10.010;2024-03-08T16:35:00;31.3;;;14.1;;
61570;SDS011;47463;49.884;10.010;2024-03-08T16:40:00;32.5;;;14.7;;
61570;SDS011;47463;49.884;10.010;2024-03-08T16:45:00;30.9;;;14.2;;
61570;SDS011;47463;49.884;10.010;2024-03-08T16:50:00;34.2;;;14.6;;
61570;SDS011;47463;49.884;10.010;2024-03-08T16:55:00;34.2;;;14.6;;
61570;SDS011;47463;49.884;10.010;2024-03-08T17:00:00;30.5;;;13.6;;
61570;SDS011;47463;49.884;10.010;2024-03-08T17:05:00;28.2;;;13.4;;
61570;SDS011;47463;49.884;10.010;2024-03-08T17:10:00;30.3;;;13.3;;
61570;SDS011;47463;49.884;10.010;2024-03-08T17:15:00;24.6;;;12.5;;
61570;SDS011;47463;49.884;10.010;2024-03-08T17:20:00;27.6;;;13.3;;
61570;SDS011;47463;49.884;10.010;2024-03-08T17:25:00;27.6;;;13.3;;
61570;SDS011;47463;49.884;10.010;2024-03-08T17:30:00;30.4;;;12.5;;
61570;SDS011;47463;49.884;10.010;2024-03-08T17:35:00;28.4;;;12.9;;
61570;SDS011;47463;49.884;10.010;2024-03-08T17:40:00;26;;;12.1;;
61570;SDS011;47463;49.884;10.010;2024-03-08T17:45:00;26.2;;;12.4;;
61570;SDS011;47463;49.884;10.010;2024-03-08T17:50:00;29.1;;;13.2;;
61570;SDS011;47463;49.884;10.010;2024-03-08T17:55:00;29.1;;;13.2;;
61570;SDS011;47463;49.884;10.010;2024-03-08T18:00:00;27.2;;;11.9;;
61570;SDS011;47463;49.884;10.010;2024-03-08T18:05:00;25;;;12.2;;
61570;SDS011;47463;49.884;10.010;2024-03-08T18:10:00;27.7;;;12.3;;
61570;SDS011;47463;49.884;10.010;2024-03-08T18:15:00;30;;;13.3;;
61570;SDS011;47463;49.884;10.010;2024-03-08T18:20:00;30.5;;;13.9;;
61570;SDS011;47463;49.884;10.010;2024-03-08T18:25:00;30.5;;;13.9;;
61570;SDS011;47463;49.884;10.010;2024-03-08T18:30:00;26.8;;;13.6;;
61570;SDS011;47463;49.884;10.010;2024-03-08T18:35:00;33.4;;;13.6;;
61570;SDS011;47463;49.884;10.010;2024-03-08T18:40:00;32;;;13.8;;
61570;SDS011;47463;49.884;10.010;2024-03-08T18:45:00;30.2;;;14.1;;
61570;SDS011;47463;49.884;10.010;2024-03-08T18:50:00;28.8;;;14;;
61570;SDS011;47463;49.884;10.010;2024-03-08T18:55:00;28.8;;;14;;
61570;SDS011;47463;49.884;10.010;2024-03-08T19:00:00;33.9;;;15.2;;
61570;SDS011;47463;49.884;10.010;2024-03-08T19:05:00;34.2;;;14;;
61570;SDS011;47463;49.884;10.010;2024-03-08T19:10:00;28.4;;;14.2;;
61570;SDS011;47463;49.884;10.010;2024-03-08T19:15:00;32.3;;;14.4;;
61570;SDS011;47463;49.884;10.010;2024-03-08T19:20:00;35.9;;;15.9;;
61570;SDS011;47463;49.884;10.010;2024-03-08T19:25:00;35.9;;;15.9;;
61570;SDS011;47463;49.884;10.010;2024-03-08T19:30:00;32.6;;;15.6;;
61570;SDS011;47463;49.884;10.010;2024-03-08T19:35:00;37;;;16.5;;
61570;SDS011;47463;49.884;10.010;2024-03-08T19:40:00;37.1;;;16.2;;
61570;SDS011;47463;49.884;10.010;2024-03-08T19:45:00;34.2;;;16.1;;
61570;SDS011;47463;49.884;10.010;2024-03-08T19:50:00;35.5;;;15.6;;
61570;SDS011;47463;49.884;10.010;2024-03-08T19:55:00;35.5;;;15.6;;
61570;SDS011;47463;49.884;10.010;2024-03-08T20:00:00;38.5;;;16.1;;
61570;SDS011;47463;49.884;10.010;2024-03-08T20:05:00;33.9;;;15.4;;
61570;SDS011;47463;49.884;10.010;2024-03-08T20:10:00;39.8;;;16.7;;
61570;SDS011;47463;49.884;10.010;2024-03-08T20:15:00;42.3;;;17;;
61570;SDS011;47463;49.884;10.010;2024-03-08T20:20:00;34.7;;;16;;
61570;SDS011;47463;49.884;10.010;2024-03-08T20:25:00;34.7;;;16;;
61570;SDS011;47463;49.884;10.010;2024-03-08T20:30:00;39.1;;;16.6;;
61570;SDS011;47463;49.884;10.010;2024-03-08T20:35:00;40.7;;;16.9;;
61570;SDS011;47463;49.884;10.010;2024-03-08T20:40:00;43.5;;;18;;
61570;SDS011;47463;49.884;10.010;2024-03-08T20:45:00;42.4;;;18.5;;
61570;SDS011;47463;49.884;10.010;2024-03-08T20:50:00;43;;;17.7;;
61570;SDS011;47463;49.884;10.010;2024-03-08T20:55:00;43;;;17.7;;
61570;SDS011;47463;49.884;10.010;2024-03-08T21:00:00;46.2;;;18.6;;
61570;SDS011;47463;49.884;10.010;2024-03-08T21:05:00;42.1;;;18;;
61570;SDS011;47463;49.884;10.010;2024-03-08T21:10:00;42.1;;;18.2;;
61570;SDS011;47463;49.884;10.010;2024-03-08T21:15:00;46.4;;;18.7;;
61570;SDS011;47463;49.884;10.010;2024-03-08T21:20:00;44.6;;;18.3;;
61570;SDS011;47463;49.884;10.010;2024-03-08T21:25:00;44.6;;;18.3;;
61570;SDS011;47463;49.884;10.010;2024-03-08T21:30:00;43.8;;;18.4;;
61570;SDS011;47463;49.884;10.010;2024-03-08T21:35:00;40.7;;;17.6;;
61570;SDS011;47463;49.884;10.010;2024-03-08T21:40:00;46.8;;;18.8;;
61570;SDS011;47463;49.884;10.010;2024-03-08T21:45:01;45.9;;;18.6;;
61570;SDS011;47463;49.884;10.010;2024-03-08T21:50:00;49.1;;;18.6;;
61570;SDS011;47463;49.884;10.010;2024-03-08T21:55:00;49.1;;;18.6;;
61570;SDS011;47463;49.884;10.010;2024-03-08T22:00:00;52.4;;;19.6;;
61570;SDS011;47463;49.884;10.010;2024-03-08T22:05:00;49.9;;;18.5;;
61570;SDS011;47463;49.884;10.010;2024-03-08T22:10:00;45.2;;;18.7;;
61570;SDS011;47463;49.884;10.010;2024-03-08T22:15:00;45.7;;;18;;
61570;SDS011;47463;49.884;10.010;2024-03-08T22:20:00;49.5;;;18.7;;
61570;SDS011;47463;49.884;10.010;2024-03-08T22:25:00;49.5;;;18.7;;
61570;SDS011;47463;49.884;10.010;2024-03-08T22:30:00;51;;;18.7;;
61570;SDS011;47463;49.884;10.010;2024-03-08T22:35:00;52.5;;;19.1;;
61570;SDS011;47463;49.884;10.010;2024-03-08T22:40:00;47.6;;;19;;
61570;SDS011;47463;49.884;10.010;2024-03-08T22:45:00;51.3;;;19.2;;
61570;SDS011;47463;49.884;10.010;2024-03-08T22:50:00;49.3;;;19.1;;
61570;SDS011;47463;49.884;10.010;2024-03-08T22:55:00;49.3;;;19.1;;
61570;SDS011;47463;49.884;10.010;2024-03-08T23:00:00;48.2;;;18.6;;
61570;SDS011;47463;49.884;10.010;2024-03-08T23:05:00;49.5;;;19.9;;
61570;SDS011;47463;49.884;10.010;2024-03-08T23:10:00;49.4;;;18.3;;
61570;SDS011;47463;49.884;10.010;2024-03-08T23:15:00;47;;;18.9;;
61570;SDS011;47463;49.884;10.010;2024-03-08T23:20:00;45.8;;;18.6;;
61570;SDS011;47463;49.884;10.010;2024-03-08T23:25:00;45.8;;;18.6;;
61570;SDS011;47463;49.884;10.010;2024-03-08T23:30:00;47.3;;;18.5;;
61570;SDS011;47463;49.884;10.010;2024-03-08T23:35:00;59.1;;;20.9;;
61570;SDS011;47463;49.884;10.010;2024-03-08T23:40:00;54.5;;;20.2;;
61570;SDS011;47463;49.884;10.010;2024-03-08T23:45:00;46.7;;;19.9;;
61570;SDS011;47463;49.884;10.010;2024-03-08T23:50:00;53.1;;;20.4;;
61570;SDS011;47463;49.884;10.010;2024-03-08T23:55:00;53.1;;;20.4;;
